Time;durP1;ratioP1;P1;durP2;ratioP2;P2;SDS_P1;SDS_P2;PMS_P1;PMS_P2;Temp;Humidity;BMP_temperature;BMP_pressure;BME280_temperature;BME280_humidity;BME280_pressure;Samples;Min_cycle;Max_cycle;Signal;HPM_P1;HPM_P2
2022/08/02 00:01:26;;;;;;;0.20;0.20;;;;;;;19.79;86.33;95648.13;4289543;33;20186;-61
2022/08/02 00:03:51;;;;;;;0.20;0.20;;;;;;;19.76;86.69;95658.78;4291009;33;20281;-62
2022/08/02 00:06:17;;;;;;;0.20;0.20;;;;;;;19.88;86.95;95654.16;4286483;33;20191;-61
2022/08/02 00:08:42;;;;;;;0.10;0.10;;;;;;;19.81;86.44;95653.94;4287532;33;20190;-62
2022/08/02 00:11:07;;;;;;;0.43;0.43;;;;;;;19.76;86.50;95667.66;4286342;33;20199;-62
2022/08/02 00:13:33;;;;;;;0.20;0.20;;;;;;;19.77;86.79;95669.22;4284482;33;20242;-62
2022/08/02 00:16:02;;;;;;;0.10;0.10;;;;;;;19.83;86.45;95667.06;4299883;33;20221;-62
2022/08/02 00:18:27;;;;;;;0.10;0.10;;;;;;;19.74;86.36;95680.72;4276652;33;20239;-62
2022/08/02 00:20:53;;;;;;;0.50;0.50;;;;;;;19.61;87.19;95689.16;4284615;33;20198;-62
2022/08/02 00:23:18;;;;;;;2.37;0.53;;;;;;;19.46;87.14;95682.56;4286618;33;20195;-62
2022/08/02 00:25:43;;;;;;;0.43;0.43;;;;;;;19.52;88.03;95682.00;4273571;33;20253;-62
2022/08/02 00:28:10;;;;;;;0.00;0.00;;;;;;;19.42;87.23;95689.72;4291732;33;20198;-62
2022/08/02 00:30:35;;;;;;;0.20;0.20;;;;;;;19.63;87.66;95686.91;4285210;33;20206;-62
2022/08/02 00:33:01;;;;;;;0.23;0.23;;;;;;;19.52;86.30;95692.00;4291170;33;20279;-62
2022/08/02 00:35:27;;;;;;;0.20;0.20;;;;;;;19.45;87.08;95691.75;4279343;33;20221;-61
2022/08/02 00:37:52;;;;;;;0.30;0.30;;;;;;;19.27;86.70;95687.75;4285605;33;20199;-62
2022/08/02 00:40:22;;;;;;;0.27;0.20;;;;;;;19.37;87.57;95684.56;4290513;33;20190;-62
2022/08/02 00:42:59;;;;;;;0.20;0.20;;;;;;;19.48;87.00;95683.78;4286605;33;20198;-62
2022/08/02 00:45:25;;;;;;;0.10;0.10;;;;;;;19.57;86.42;95686.34;4287629;33;20190;-62
2022/08/02 00:47:50;;;;;;;3.00;0.40;;;;;;;19.40;87.13;95679.31;4288920;33;20190;-62
2022/08/02 00:50:16;;;;;;;0.13;0.13;;;;;;;19.62;87.03;95683.41;4281889;33;20190;-62
2022/08/02 00:52:41;;;;;;;0.00;0.00;;;;;;;19.69;86.51;95678.25;4292789;33;20191;-62
2022/08/02 00:55:07;;;;;;;0.40;0.40;;;;;;;19.75;86.54;95678.75;4294228;33;20183;-63
2022/08/02 00:57:32;;;;;;;0.20;0.20;;;;;;;19.74;86.18;95678.00;4280669;33;20225;-62
2022/08/02 00:59:58;;;;;;;0.00;0.00;;;;;;;19.78;85.79;95676.19;4297674;33;20201;-61
2022/08/02 01:02:23;;;;;;;0.20;0.20;;;;;;;19.88;85.99;95674.91;4280697;33;20198;-62
2022/08/02 01:04:48;;;;;;;0.27;0.27;;;;;;;19.68;85.46;95671.28;4278509;33;20309;-62
2022/08/02 01:07:14;;;;;;;0.20;0.20;;;;;;;19.79;86.41;95677.75;4276148;33;20234;-62
2022/08/02 01:09:41;;;;;;;0.20;0.20;;;;;;;19.78;86.25;95675.38;4285387;33;20210;-61
2022/08/02 01:12:06;;;;;;;0.00;0.00;;;;;;;19.90;86.27;95676.12;4271653;33;20233;-62
2022/08/02 01:14:32;;;;;;;0.30;0.30;;;;;;;19.93;85.88;95676.59;4284770;33;20191;-62
2022/08/02 01:17:04;;;;;;;0.10;0.10;;;;;;;19.80;86.06;95681.22;4298403;33;20240;-62
2022/08/02 01:19:46;;;;;;;0.23;0.23;;;;;;;19.86;86.21;95679.84;4282436;33;20246;-62
2022/08/02 01:22:47;;;;;;;0.20;0.20;;;;;;;19.87;86.20;95682.22;4285728;33;20209;-61
2022/08/02 01:25:36;;;;;;;0.30;0.30;;;;;;;19.95;86.31;95677.03;4274436;33;20190;-62
2022/08/02 01:28:25;;;;;;;0.63;0.63;;;;;;;19.94;86.27;95673.56;4276185;33;20191;-61
2022/08/02 01:30:56;;;;;;;0.30;0.30;;;;;;;19.77;86.53;95674.59;4281674;33;20189;-61
2022/08/02 01:33:24;;;;;;;0.00;0.00;;;;;;;19.76;87.04;95675.72;4286376;33;20187;-61
2022/08/02 01:35:53;;;;;;;0.23;0.23;;;;;;;19.82;86.65;95674.38;4279550;33;20265;-62
2022/08/02 01:38:31;;;;;;;0.23;0.23;;;;;;;19.81;87.16;95686.25;4274487;33;20266;-62
2022/08/02 01:41:00;;;;;;;0.53;0.53;;;;;;;19.61;87.00;95681.84;4277839;33;20209;-62
2022/08/02 01:43:28;;;;;;;0.53;0.40;;;;;;;19.66;87.35;95673.53;4285579;33;20202;-61
2022/08/02 01:45:55;;;;;;;0.10;0.10;;;;;;;19.61;87.60;95673.00;4270693;33;20198;-61
2022/08/02 01:48:23;;;;;;;0.30;0.30;;;;;;;19.61;87.12;95660.31;4272959;33;20210;-61
2022/08/02 01:50:50;;;;;;;2.03;0.47;;;;;;;19.72;87.25;95668.72;4281633;33;20198;-61
2022/08/02 01:53:19;;;;;;;0.13;0.13;;;;;;;19.63;87.29;95671.53;4276314;33;20202;-61
2022/08/02 01:55:47;;;;;;;0.10;0.10;;;;;;;19.75;87.31;95668.00;4287533;33;20199;-61
2022/08/02 01:58:16;;;;;;;1.80;0.70;;;;;;;19.70;87.10;95666.34;4289853;33;20213;-61
2022/08/02 02:00:43;;;;;;;0.50;0.30;;;;;;;19.69;86.85;95658.63;4283848;33;20194;-61
2022/08/02 02:03:16;;;;;;;0.00;0.00;;;;;;;19.76;86.72;95664.97;4272618;33;20199;-61
2022/08/02 02:05:43;;;;;;;0.30;0.30;;;;;;;19.74;86.49;95667.25;4270225;33;20238;-61
2022/08/02 02:08:09;;;;;;;0.30;0.30;;;;;;;19.60;87.18;95666.81;4283164;33;20225;-61
2022/08/02 02:10:37;;;;;;;0.03;0.03;;;;;;;19.55;87.20;95664.37;4283306;33;20253;-61
2022/08/02 02:13:08;;;;;;;0.20;0.20;;;;;;;19.39;87.66;95655.44;4287611;33;20201;-62
2022/08/02 02:15:39;;;;;;;0.40;0.40;;;;;;;19.51;87.41;95658.13;4293504;33;20198;-62
2022/08/02 02:18:06;;;;;;;0.00;0.00;;;;;;;19.47;87.54;95649.13;4287606;33;20214;-61
2022/08/02 02:20:32;;;;;;;0.00;0.00;;;;;;;19.52;87.43;95651.63;4283165;33;20198;-61
2022/08/02 02:22:58;;;;;;;0.40;0.40;;;;;;;19.68;86.74;95654.34;4291597;33;20269;-61
2022/08/02 02:25:23;;;;;;;0.47;0.47;;;;;;;19.78;86.44;95657.31;4286239;33;20206;-61
2022/08/02 02:28:01;;;;;;;0.43;0.43;;;;;;;19.63;86.51;95658.06;4291919;33;20194;-61
2022/08/02 02:30:28;;;;;;;0.50;0.50;;;;;;;19.73;86.48;95662.97;4292090;33;20198;-61
2022/08/02 02:32:58;;;;;;;2.73;1.20;;;;;;;19.64;86.33;95654.25;4284583;33;20237;-61
2022/08/02 02:35:27;;;;;;;0.20;0.20;;;;;;;19.62;86.90;95653.03;4281449;33;20203;-61
2022/08/02 02:37:55;;;;;;;0.40;0.40;;;;;;;19.49;86.73;95654.97;4273858;33;20191;-60
2022/08/02 02:40:23;;;;;;;0.37;0.37;;;;;;;19.48;87.32;95650.69;4282944;33;20329;-61
2022/08/02 02:42:50;;;;;;;0.37;0.37;;;;;;;19.52;87.04;95655.09;4278205;33;20205;-61
2022/08/02 02:45:17;;;;;;;0.63;0.63;;;;;;;19.63;86.61;95646.53;4290440;33;20263;-61
2022/08/02 02:47:43;;;;;;;0.50;0.50;;;;;;;19.71;86.34;95654.47;4285065;33;20186;-61
2022/08/02 02:50:10;;;;;;;0.53;0.53;;;;;;;19.58;86.17;95652.94;4266844;33;20257;-61
2022/08/02 02:52:38;;;;;;;0.53;0.53;;;;;;;19.56;86.10;95655.16;4289062;33;20222;-62
2022/08/02 02:55:05;;;;;;;0.30;0.30;;;;;;;19.46;87.44;95652.94;4283627;33;20191;-62
2022/08/02 02:57:31;;;;;;;0.40;0.40;;;;;;;19.55;86.50;95659.78;4267229;33;20206;-61
2022/08/02 02:59:58;;;;;;;0.10;0.10;;;;;;;19.54;86.78;95662.81;4273377;33;20270;-61
2022/08/02 03:02:23;;;;;;;0.43;0.30;;;;;;;19.36;87.33;95666.88;4283952;33;20214;-61
2022/08/02 03:04:50;;;;;;;0.20;0.20;;;;;;;19.31;86.80;95665.22;4281430;33;20206;-61
2022/08/02 03:07:16;;;;;;;0.13;0.13;;;;;;;19.11;87.77;95677.69;4276158;33;20238;-61
2022/08/02 03:09:41;;;;;;;0.43;0.43;;;;;;;19.19;88.09;95668.69;4279307;33;20198;-62
2022/08/02 03:12:08;;;;;;;0.70;0.70;;;;;;;19.40;87.31;95671.22;4283738;33;20198;-62
2022/08/02 03:14:34;;;;;;;0.50;0.43;;;;;;;19.44;87.51;95665.97;4271374;33;20183;-62
2022/08/02 03:16:59;;;;;;;0.93;0.60;;;;;;;19.66;86.88;95673.53;4286146;33;20191;-61
2022/08/02 03:19:24;;;;;;;0.40;0.40;;;;;;;19.51;86.83;95666.19;4288869;33;20212;-61
2022/08/02 03:21:50;;;;;;;0.50;0.50;;;;;;;19.43;87.33;95675.16;4279819;33;20242;-61
2022/08/02 03:24:16;;;;;;;0.57;0.57;;;;;;;19.50;87.04;95667.31;4287680;33;20190;-62
2022/08/02 03:26:41;;;;;;;0.30;0.30;;;;;;;19.56;86.77;95671.31;4287129;33;20242;-61
2022/08/02 03:29:07;;;;;;;1.20;0.50;;;;;;;19.57;86.64;95667.50;4287718;33;20250;-62
2022/08/02 03:31:34;;;;;;;0.30;0.30;;;;;;;19.61;86.13;95673.00;4283904;33;20221;-61
2022/08/02 03:34:00;;;;;;;0.23;0.23;;;;;;;19.64;86.25;95683.09;4289149;33;20207;-64
2022/08/02 03:36:29;;;;;;;0.40;0.40;;;;;;;19.70;86.11;95677.13;4286779;33;20190;-61
2022/08/02 03:38:56;;;;;;;1.77;0.90;;;;;;;19.63;86.60;95681.50;4284620;33;20204;-61
2022/08/02 03:41:22;;;;;;;0.40;0.40;;;;;;;19.67;86.36;95674.31;4281397;33;20296;-61
2022/08/02 03:43:49;;;;;;;0.27;0.27;;;;;;;19.63;86.27;95671.53;4286958;33;20206;-61
2022/08/02 03:46:18;;;;;;;0.33;0.33;;;;;;;19.64;86.01;95673.09;4286350;33;20361;-61
2022/08/02 03:48:44;;;;;;;0.30;0.30;;;;;;;19.60;86.20;95677.59;4277093;33;20202;-61
2022/08/02 03:51:11;;;;;;;0.30;0.30;;;;;;;19.67;86.21;95677.81;4287353;33;20205;-62
2022/08/02 03:53:37;;;;;;;0.40;0.40;;;;;;;19.58;86.86;95677.16;4288725;33;20281;-61
2022/08/02 03:56:06;;;;;;;0.40;0.40;;;;;;;19.56;86.86;95676.72;4283058;33;20179;-62
2022/08/02 03:58:32;;;;;;;1.97;0.47;;;;;;;19.61;86.25;95686.44;4286596;33;20246;-62
2022/08/02 04:00:58;;;;;;;0.33;0.33;;;;;;;19.63;86.52;95685.00;4275679;33;20195;-62
2022/08/02 04:03:25;;;;;;;0.40;0.40;;;;;;;19.69;86.33;95686.31;4292267;33;20187;-61
2022/08/02 04:05:51;;;;;;;0.30;0.30;;;;;;;19.58;86.53;95682.53;4287011;33;20257;-62
2022/08/02 04:08:16;;;;;;;0.77;0.77;;;;;;;19.74;86.08;95682.62;4279452;33;20376;-62
2022/08/02 04:13:29;;;;;;;0.37;0.37;;;;;;;19.77;86.26;95688.06;4286333;33;20273;-62
2022/08/02 04:16:18;;;;;;;0.43;0.43;;;;;;;19.61;86.62;95695.31;4297147;33;20205;-63
2022/08/02 04:18:52;;;;;;;0.63;0.60;;;;;;;19.59;86.63;95696.78;4273659;33;20269;-64
2022/08/02 04:21:20;;;;;;;0.30;0.27;;;;;;;19.65;86.54;95690.03;4277950;33;20274;-62
2022/08/02 04:23:47;;;;;;;0.30;0.30;;;;;;;19.50;86.62;95688.84;4292595;33;20218;-61
2022/08/02 04:26:13;;;;;;;0.50;0.50;;;;;;;19.64;86.60;95689.25;4274993;33;20191;-61
2022/08/02 04:28:41;;;;;;;0.30;0.30;;;;;;;19.72;85.97;95693.72;4298142;33;20212;-60
2022/08/02 04:31:09;;;;;;;0.27;0.27;;;;;;;19.65;86.40;95693.50;4278656;33;20191;-61
2022/08/02 04:33:35;;;;;;;0.73;0.73;;;;;;;19.73;86.15;95697.19;4283223;33;20222;-61
2022/08/02 04:36:01;;;;;;;0.33;0.33;;;;;;;19.75;85.61;95703.78;4286161;33;20253;-62
2022/08/02 04:38:26;;;;;;;0.87;0.60;;;;;;;19.62;86.24;95706.88;4292047;33;20187;-62
2022/08/02 04:40:54;;;;;;;0.40;0.40;;;;;;;19.73;85.95;95708.75;4287725;33;20209;-61
2022/08/02 04:43:20;;;;;;;0.20;0.20;;;;;;;19.56;86.30;95709.00;4289718;33;20183;-61
2022/08/02 04:45:56;;;;;;;0.30;0.30;;;;;;;19.46;86.73;95714.84;4291651;33;20229;-62
2022/08/02 04:48:22;;;;;;;0.60;0.60;;;;;;;19.60;86.52;95717.97;4288153;33;20305;-61
2022/08/02 04:50:48;;;;;;;0.20;0.20;;;;;;;19.62;85.95;95718.41;4288775;33;20214;-61
2022/08/02 04:53:13;;;;;;;0.10;0.10;;;;;;;19.52;86.77;95726.97;4283735;33;20242;-62
2022/08/02 04:55:39;;;;;;;0.37;0.37;;;;;;;19.71;85.98;95732.53;4286427;33;20220;-61
2022/08/02 04:58:04;;;;;;;0.40;0.40;;;;;;;19.80;85.61;95730.47;4289723;33;20258;-62
2022/08/02 05:00:31;;;;;;;0.27;0.27;;;;;;;19.81;84.96;95736.66;4290929;33;20242;-63
2022/08/02 05:02:57;;;;;;;0.30;0.30;;;;;;;19.75;85.41;95736.09;4277511;33;20262;-61
2022/08/02 05:05:22;;;;;;;0.30;0.30;;;;;;;19.81;84.99;95737.44;4294021;33;20187;-61
2022/08/02 05:07:47;;;;;;;0.50;0.50;;;;;;;19.82;85.11;95743.59;4280132;33;20216;-62
2022/08/02 05:10:14;;;;;;;0.67;0.63;;;;;;;19.73;85.25;95734.91;4297342;33;20178;-62
2022/08/02 05:12:40;;;;;;;0.87;0.73;;;;;;;19.72;85.87;95728.72;4285906;33;20194;-62
2022/08/02 05:15:06;;;;;;;1.17;0.60;;;;;;;19.66;85.85;95730.06;4283630;33;20282;-61
2022/08/02 05:17:31;;;;;;;0.50;0.50;;;;;;;19.69;85.77;95725.94;4285439;33;20207;-62
2022/08/02 05:19:57;;;;;;;1.90;0.90;;;;;;;19.54;86.63;95727.41;4279198;33;20178;-62
2022/08/02 05:22:22;;;;;;;0.90;0.60;;;;;;;19.75;85.93;95728.00;4274123;33;20239;-61
2022/08/02 05:24:47;;;;;;;0.93;0.50;;;;;;;19.74;86.58;95733.78;4285464;33;20202;-62
2022/08/02 05:27:13;;;;;;;2.00;0.53;;;;;;;19.82;85.94;95727.44;4297038;33;20186;-61
2022/08/02 05:29:38;;;;;;;1.27;1.03;;;;;;;19.87;85.60;95725.31;4294844;33;20171;-61
2022/08/02 05:32:04;;;;;;;1.03;0.90;;;;;;;19.88;85.30;95723.38;4290480;33;20381;-62
2022/08/02 05:34:29;;;;;;;0.40;0.40;;;;;;;19.92;85.09;95731.56;4287310;33;20485;-61
2022/08/02 05:36:55;;;;;;;0.20;0.20;;;;;;;19.87;85.65;95724.50;4283537;33;20198;-61
2022/08/02 05:39:20;;;;;;;0.77;0.77;;;;;;;19.93;85.30;95730.44;4276588;33;20235;-61
2022/08/02 05:41:45;;;;;;;0.63;0.63;;;;;;;19.88;85.46;95721.47;4286642;33;20251;-61
2022/08/02 05:44:11;;;;;;;0.60;0.60;;;;;;;20.02;84.97;95731.06;4288822;33;20178;-61
2022/08/02 05:46:36;;;;;;;0.70;0.33;;;;;;;20.09;85.20;95732.06;4290606;33;20260;-62
2022/08/02 05:49:03;;;;;;;0.17;0.17;;;;;;;20.04;84.89;95735.00;4287410;33;20191;-61
2022/08/02 05:51:58;;;;;;;0.30;0.30;;;;;;;20.07;85.44;95738.91;4277657;33;20192;-61
2022/08/02 05:54:40;;;;;;;1.17;1.07;;;;;;;20.08;85.35;95740.47;4275070;33;20182;-60
2022/08/02 05:57:18;;;;;;;11.50;2.13;;;;;;;20.22;84.10;95743.56;4272629;33;20304;-60
2022/08/02 05:59:59;;;;;;;0.97;0.53;;;;;;;20.51;82.22;95742.44;4296202;33;20236;-60
2022/08/02 06:02:39;;;;;;;0.97;0.97;;;;;;;20.75;80.91;95746.88;4279401;33;20303;-60
2022/08/02 06:05:11;;;;;;;0.50;0.50;;;;;;;21.04;79.79;95759.12;4291176;33;20212;-60
2022/08/02 06:07:40;;;;;;;1.23;1.13;;;;;;;21.29;78.04;95759.75;4286379;33;20183;-60
2022/08/02 06:10:07;;;;;;;0.40;0.40;;;;;;;21.59;76.32;95747.34;4279034;33;20232;-60
2022/08/02 06:12:40;;;;;;;0.43;0.43;;;;;;;21.71;75.54;95751.81;4291811;33;20194;-60
2022/08/02 06:15:06;;;;;;;0.40;0.40;;;;;;;21.67;75.31;95748.25;4297523;33;20220;-60
2022/08/02 06:17:31;;;;;;;0.40;0.40;;;;;;;21.66;75.68;95755.56;4288761;33;20205;-60
2022/08/02 06:19:59;;;;;;;0.53;0.53;;;;;;;21.67;75.69;95756.34;4278177;33;20190;-58
2022/08/02 06:22:26;;;;;;;0.53;0.53;;;;;;;21.74;75.78;95761.91;4287257;33;20230;-55
2022/08/02 06:24:53;;;;;;;0.83;0.83;;;;;;;21.85;76.00;95760.22;4281492;33;20199;-56
2022/08/02 06:27:20;;;;;;;0.10;0.10;;;;;;;21.85;75.91;95754.81;4281858;33;20217;-56
2022/08/02 06:29:48;;;;;;;0.47;0.47;;;;;;;21.85;75.82;95761.00;4271475;33;20225;-56
2022/08/02 06:32:18;;;;;;;0.43;0.43;;;;;;;21.80;75.57;95753.19;4272726;33;20183;-56
2022/08/02 06:34:43;;;;;;;0.53;0.53;;;;;;;21.66;74.67;95762.87;4271775;33;20194;-56
2022/08/02 06:37:25;;;;;;;0.90;0.47;;;;;;;21.86;74.41;95761.78;4281677;33;20201;-55
2022/08/02 06:40:05;;;;;;;0.20;0.20;;;;;;;21.99;74.15;95757.03;4270836;33;20270;-55
2022/08/02 06:42:46;;;;;;;0.50;0.50;;;;;;;22.26;73.13;95764.16;4276645;33;20275;-55
2022/08/02 06:45:11;;;;;;;0.40;0.40;;;;;;;22.20;72.72;95760.19;4278852;33;20273;-56
2022/08/02 06:47:37;;;;;;;0.10;0.10;;;;;;;22.18;73.01;95754.34;4279914;33;20183;-56
2022/08/02 06:50:03;;;;;;;0.47;0.47;;;;;;;22.11;72.09;95751.50;4285047;33;20190;-62
2022/08/02 06:52:32;;;;;;;0.20;0.20;;;;;;;22.12;72.72;95744.97;4293329;33;20209;-62
2022/08/02 06:54:59;;;;;;;0.87;0.73;;;;;;;22.16;72.50;95749.31;4285655;33;20183;-62
2022/08/02 06:57:24;;;;;;;0.50;0.50;;;;;;;22.27;72.54;95754.91;4273847;33;20178;-62
2022/08/02 06:59:50;;;;;;;0.73;0.73;;;;;;;22.24;72.80;95755.59;4284176;33;20289;-62
2022/08/02 07:02:15;;;;;;;6.03;1.30;;;;;;;22.36;71.87;95747.34;4271532;33;20265;-62
2022/08/02 07:04:40;;;;;;;0.53;0.50;;;;;;;22.39;71.79;95751.28;4290830;33;20204;-62
2022/08/02 07:07:06;;;;;;;0.23;0.23;;;;;;;22.37;71.40;95751.62;4291049;33;20204;-62
2022/08/02 07:09:31;;;;;;;0.30;0.30;;;;;;;22.36;70.98;95752.78;4275319;33;20234;-62
2022/08/02 07:11:56;;;;;;;0.40;0.40;;;;;;;22.49;71.05;95758.78;4288806;33;20179;-62
2022/08/02 07:14:22;;;;;;;0.10;0.10;;;;;;;22.50;70.99;95752.25;4271800;33;20229;-62
2022/08/02 07:16:47;;;;;;;2.27;0.60;;;;;;;22.48;71.24;95758.00;4286725;33;20204;-62
2022/08/02 07:19:12;;;;;;;0.30;0.30;;;;;;;22.43;70.57;95752.91;4282465;33;20202;-62
2022/08/02 07:21:38;;;;;;;0.20;0.20;;;;;;;22.44;71.06;95754.47;4272604;33;20213;-62
2022/08/02 07:24:03;;;;;;;0.00;0.00;;;;;;;22.54;70.40;95755.78;4285855;33;20258;-62
2022/08/02 07:26:28;;;;;;;0.20;0.20;;;;;;;22.55;70.65;95758.13;4287265;33;20236;-62
2022/08/02 07:28:54;;;;;;;2.00;0.77;;;;;;;22.64;70.28;95755.22;4284050;33;20241;-62
2022/08/02 07:31:20;;;;;;;0.40;0.40;;;;;;;22.56;70.12;95748.87;4264353;33;20345;-62
2022/08/02 07:33:45;;;;;;;0.10;0.10;;;;;;;22.52;70.52;95748.03;4273680;33;20325;-62
2022/08/02 07:36:10;;;;;;;0.30;0.30;;;;;;;22.52;70.49;95744.56;4289021;33;20186;-62
2022/08/02 07:38:36;;;;;;;0.20;0.20;;;;;;;22.41;71.31;95749.78;4286262;33;20220;-62
2022/08/02 07:41:01;;;;;;;0.47;0.47;;;;;;;22.43;70.97;95744.78;4284659;33;20191;-62
2022/08/02 07:43:26;;;;;;;0.43;0.43;;;;;;;22.50;70.61;95744.91;4289359;33;20206;-62
2022/08/02 07:45:52;;;;;;;0.50;0.50;;;;;;;22.52;70.70;95739.91;4285310;33;20197;-62
2022/08/02 07:48:17;;;;;;;0.10;0.10;;;;;;;22.63;69.98;95738.22;4280484;33;20179;-62
2022/08/02 07:50:42;;;;;;;0.30;0.30;;;;;;;22.46;70.55;95741.34;4264965;33;20210;-62
2022/08/02 07:53:08;;;;;;;0.77;0.77;;;;;;;22.53;70.60;95738.78;4270888;33;20341;-62
2022/08/02 07:55:33;;;;;;;0.13;0.13;;;;;;;22.53;70.47;95735.28;4283215;33;20187;-62
2022/08/02 07:57:59;;;;;;;0.30;0.30;;;;;;;22.52;69.91;95737.22;4287738;33;20190;-62
2022/08/02 08:00:24;;;;;;;0.37;0.37;;;;;;;22.60;70.94;95733.50;4285751;33;20191;-62
2022/08/02 08:02:49;;;;;;;0.37;0.37;;;;;;;22.56;70.98;95737.28;4285011;33;20266;-62
2022/08/02 08:05:14;;;;;;;0.33;0.30;;;;;;;22.39;71.19;95741.25;4288533;33;20217;-62
2022/08/02 08:07:40;;;;;;;2.63;0.43;;;;;;;22.56;70.96;95738.06;4281914;33;20213;-62
2022/08/02 08:10:06;;;;;;;0.33;0.33;;;;;;;22.61;70.35;95742.41;4287575;33;20277;-62
2022/08/02 08:12:31;;;;;;;0.23;0.23;;;;;;;22.59;70.75;95731.94;4286710;33;20267;-62
2022/08/02 08:14:57;;;;;;;0.40;0.40;;;;;;;22.64;70.46;95730.88;4276243;33;20190;-62
2022/08/02 08:17:22;;;;;;;0.20;0.20;;;;;;;22.53;69.92;95725.25;4295839;33;20224;-62
2022/08/02 08:19:47;;;;;;;0.20;0.20;;;;;;;22.55;70.21;95728.38;4292926;33;20182;-62
2022/08/02 08:22:13;;;;;;;0.10;0.10;;;;;;;22.58;69.71;95727.69;4283785;33;20269;-62
2022/08/02 08:24:38;;;;;;;0.20;0.20;;;;;;;22.54;68.40;95726.81;4293168;33;20198;-62
2022/08/02 08:27:05;;;;;;;0.43;0.43;;;;;;;22.61;69.79;95726.97;4286595;33;20186;-62
2022/08/02 08:29:30;;;;;;;0.23;0.23;;;;;;;22.63;68.90;95724.69;4292701;33;20190;-62
2022/08/02 08:31:56;;;;;;;0.10;0.10;;;;;;;22.62;69.49;95725.81;4304238;33;20218;-62
2022/08/02 08:34:22;;;;;;;0.30;0.30;;;;;;;22.71;69.92;95727.47;4291804;33;20179;-62
2022/08/02 08:36:48;;;;;;;0.20;0.20;;;;;;;22.64;69.61;95722.75;4281537;33;20183;-62
2022/08/02 08:39:14;;;;;;;0.30;0.30;;;;;;;22.72;68.96;95726.34;4289430;33;20233;-62
2022/08/02 08:41:42;;;;;;;0.00;0.00;;;;;;;22.74;69.05;95718.66;4280410;33;20269;-62
2022/08/02 08:44:08;;;;;;;0.20;0.20;;;;;;;22.70;69.34;95721.28;4279291;33;20201;-62
2022/08/02 08:46:36;;;;;;;0.30;0.30;;;;;;;22.80;69.32;95722.66;4286344;33;20188;-62
2022/08/02 08:49:25;;;;;;;0.90;0.10;;;;;;;22.84;69.26;95720.78;4287782;33;20252;-62
2022/08/02 08:51:54;;;;;;;0.20;0.20;;;;;;;22.94;68.73;95720.94;4283921;33;20262;-62
2022/08/02 08:54:24;;;;;;;0.40;0.40;;;;;;;22.96;68.42;95726.00;4287680;33;20178;-62
2022/08/02 08:56:50;;;;;;;0.93;0.30;;;;;;;23.02;68.25;95723.78;4273924;33;20209;-62
2022/08/02 08:59:16;;;;;;;0.30;0.30;;;;;;;22.91;67.55;95721.69;4275496;33;20241;-62
2022/08/02 09:01:44;;;;;;;0.23;0.23;;;;;;;22.90;67.66;95722.03;4291023;33;20183;-62
2022/08/02 09:04:10;;;;;;;0.20;0.20;;;;;;;22.96;67.52;95726.00;4290191;33;20253;-62
2022/08/02 09:06:38;;;;;;;0.60;0.60;;;;;;;22.82;66.73;95717.66;4291281;33;20213;-62
2022/08/02 09:09:03;;;;;;;0.10;0.10;;;;;;;22.89;67.17;95723.97;4275737;33;20203;-62
2022/08/02 09:11:28;;;;;;;0.20;0.20;;;;;;;22.91;67.98;95718.97;4290996;33;20182;-62
2022/08/02 09:14:00;;;;;;;0.30;0.30;;;;;;;22.86;67.11;95715.81;4291530;33;20200;-62
2022/08/02 09:16:37;;;;;;;0.30;0.30;;;;;;;22.86;67.80;95724.69;4280165;33;20183;-62
2022/08/02 09:19:22;;;;;;;1.13;0.93;;;;;;;22.91;66.12;95718.19;4283136;33;20250;-62
2022/08/02 09:21:49;;;;;;;0.30;0.30;;;;;;;22.96;67.48;95726.00;4286270;33;20217;-62
2022/08/02 09:24:19;;;;;;;0.40;0.40;;;;;;;22.98;67.42;95723.72;4294183;33;20253;-62
2022/08/02 09:26:46;;;;;;;0.40;0.40;;;;;;;22.95;66.48;95717.09;4289051;33;20194;-62
2022/08/02 09:29:12;;;;;;;0.50;0.50;;;;;;;23.04;66.89;95714.16;4286070;33;20190;-62
2022/08/02 09:31:38;;;;;;;0.43;0.43;;;;;;;23.00;66.68;95721.44;4286248;33;20191;-62
2022/08/02 09:34:04;;;;;;;0.37;0.37;;;;;;;23.07;67.25;95726.19;4291428;33;20205;-62
2022/08/02 09:36:44;;;;;;;0.40;0.40;;;;;;;23.10;67.24;95728.16;4282684;33;20203;-62
2022/08/02 09:39:12;;;;;;;0.10;0.10;;;;;;;23.12;65.71;95729.34;4278168;33;20189;-62
2022/08/02 09:41:40;;;;;;;0.37;0.37;;;;;;;23.00;64.81;95726.84;4291915;33;20214;-62
2022/08/02 09:44:08;;;;;;;0.40;0.40;;;;;;;22.96;65.01;95739.53;4291158;33;20228;-62
2022/08/02 09:46:36;;;;;;;0.20;0.20;;;;;;;23.03;65.86;95738.88;4287633;33;20182;-62
2022/08/02 09:49:04;;;;;;;0.13;0.13;;;;;;;23.03;64.86;95725.34;4284237;33;20210;-62
2022/08/02 09:51:33;;;;;;;0.20;0.20;;;;;;;23.14;65.66;95727.06;4286072;33;20355;-62
2022/08/02 09:54:05;;;;;;;0.20;0.20;;;;;;;23.06;66.15;95730.81;4280566;33;20233;-62
2022/08/02 09:56:45;;;;;;;0.20;0.20;;;;;;;23.05;66.53;95731.97;4289268;33;20197;-62
2022/08/02 09:59:12;;;;;;;0.20;0.20;;;;;;;23.12;66.12;95736.69;4282711;33;20214;-62
2022/08/02 10:01:38;;;;;;;0.33;0.33;;;;;;;23.05;66.40;95736.59;4287788;33;20175;-62
2022/08/02 10:04:06;;;;;;;0.20;0.20;;;;;;;23.09;66.10;95730.06;4284564;33;20277;-62
2022/08/02 10:06:32;;;;;;;0.50;0.50;;;;;;;23.21;63.62;95727.19;4283718;33;20245;-62
2022/08/02 10:08:58;;;;;;;0.30;0.30;;;;;;;23.21;64.26;95726.41;4274224;33;20187;-62
2022/08/02 10:11:26;;;;;;;0.27;0.27;;;;;;;23.22;64.60;95728.75;4279642;33;20197;-62
2022/08/02 10:13:53;;;;;;;0.17;0.17;;;;;;;23.13;63.62;95725.50;4282278;33;20202;-62
2022/08/02 10:16:22;;;;;;;0.77;0.73;;;;;;;23.18;64.04;95727.91;4279952;33;20178;-62
2022/08/02 10:18:53;;;;;;;0.13;0.13;;;;;;;23.24;63.78;95718.34;4285166;33;20186;-61
2022/08/02 10:21:23;;;;;;;0.27;0.27;;;;;;;23.56;62.60;95726.13;4280689;33;20233;-62
2022/08/02 10:23:49;;;;;;;0.17;0.17;;;;;;;23.46;64.59;95718.63;4285990;33;20182;-62
2022/08/02 10:26:17;;;;;;;0.20;0.20;;;;;;;23.50;63.38;95724.84;4288774;33;20241;-62
2022/08/02 10:28:45;;;;;;;1.93;0.17;;;;;;;23.49;63.68;95728.72;4282339;33;20254;-62
2022/08/02 10:31:13;;;;;;;0.43;0.43;;;;;;;23.58;64.11;95718.44;4294978;33;20209;-62
2022/08/02 10:33:39;;;;;;;0.30;0.30;;;;;;;23.51;64.40;95726.41;4280619;33;20182;-62
2022/08/02 10:36:07;;;;;;;0.30;0.30;;;;;;;23.50;64.44;95722.16;4283856;33;20201;-62
2022/08/02 10:38:32;;;;;;;0.10;0.10;;;;;;;23.56;62.97;95720.72;4284953;33;20257;-62
2022/08/02 10:40:58;;;;;;;0.43;0.43;;;;;;;23.61;63.53;95713.06;4273771;33;20202;-62
2022/08/02 10:43:41;;;;;;;1.20;1.20;;;;;;;23.69;62.78;95705.03;4284546;33;20201;-62
2022/08/02 10:46:30;;;;;;;0.37;0.37;;;;;;;23.75;62.05;95712.47;4275619;33;20232;-62
2022/08/02 10:49:01;;;;;;;0.60;0.60;;;;;;;23.66;62.17;95703.84;4278457;33;20191;-62
2022/08/02 10:52:06;;;;;;;0.00;0.00;;;;;;;23.68;62.62;95712.38;4284525;33;20202;-62
2022/08/02 10:54:42;;;;;;;0.50;0.50;;;;;;;23.76;61.44;95705.09;4224973;33;20172;-62
2022/08/02 10:57:19;;;;;;;0.43;0.43;;;;;;;23.68;62.34;95698.06;4231539;33;20213;-62
2022/08/02 10:59:45;;;;;;;0.20;0.20;;;;;;;23.61;63.48;95696.03;4263180;33;20193;-62
2022/08/02 11:02:12;;;;;;;0.00;0.00;;;;;;;23.61;62.48;95690.59;4281741;33;20182;-62
2022/08/02 11:04:40;;;;;;;0.37;0.37;;;;;;;23.68;61.10;95690.72;4293679;33;20222;-62
2022/08/02 11:07:16;;;;;;;2.00;0.73;;;;;;;23.80;60.23;95692.38;4281409;33;20209;-62
2022/08/02 11:09:46;;;;;;;0.53;0.53;;;;;;;23.85;61.51;95692.06;4271952;33;20183;-62
2022/08/02 11:12:16;;;;;;;0.10;0.10;;;;;;;23.76;63.03;95696.97;4271770;33;20222;-62
2022/08/02 11:14:58;;;;;;;0.27;0.27;;;;;;;23.77;62.67;95682.28;4282112;33;20233;-62
2022/08/02 11:17:24;;;;;;;0.57;0.57;;;;;;;23.83;62.03;95678.87;4284802;33;20182;-62
2022/08/02 11:20:07;;;;;;;5.53;0.67;;;;;;;23.87;61.21;95671.59;4283870;33;20194;-62
2022/08/02 11:22:34;;;;;;;0.17;0.17;;;;;;;23.91;58.49;95671.59;4282509;33;20270;-62
2022/08/02 11:25:22;;;;;;;0.30;0.30;;;;;;;23.84;59.61;95669.59;4291367;33;20182;-62
2022/08/02 11:27:55;;;;;;;0.50;0.50;;;;;;;23.93;58.93;95658.47;4267565;33;20195;-62
2022/08/02 11:30:22;;;;;;;0.10;0.10;;;;;;;24.10;58.92;95659.81;4283000;33;20370;-62
2022/08/02 11:32:48;;;;;;;0.00;0.00;;;;;;;23.96;59.83;95655.00;4282590;33;20241;-62
2022/08/02 11:35:14;;;;;;;0.40;0.40;;;;;;;23.89;60.78;95658.44;4286754;33;20192;-62
2022/08/02 11:37:43;;;;;;;0.27;0.27;;;;;;;23.91;60.44;95656.13;4281733;33;20190;-62
2022/08/02 11:40:16;;;;;;;0.10;0.10;;;;;;;23.85;61.26;95651.41;4276918;33;20218;-62
2022/08/02 11:42:43;;;;;;;1.23;0.40;;;;;;;23.87;61.38;95668.09;4274587;33;20217;-62